PWSweather.com
Personal Weather Stations
Station Observations
EA5BZ
Nuevo Altabix, ElcheES

Nuevo AltabixElcheES

Lat: 38.276, Lon: -0.671

Elevation: 0

Station Type: Davis Vantage Pro 2

http://meteoelche.es

High Low Average
Temperature 59.2°F15.1°C 49.8°F9.9°C 55.7°F13.2°C
Dew Point 51.6°F10.9°C 38.9°F3.8°C 44.6°F7.0°C
Winds 29.1 mph 46.8 kmh 1.3 mph 2.1 kmh 12.0 mph WSW19.3 kmh WSW
Wind Gusts 51.2 mph82.4 kmh 3.1 mph5.0 kmh 19.0 mph30.6 kmh
Humidity 88% 49% 67%
Pressure 30.01 in1016.3 mb 29.67 in1004.7 mb -
Precipitation 0.27 in6.9 mm - -
Hour Temp Dew Point Humidity Winds Wind Gusts Pressure Precip Precip Rate Daily Precip Total
12:00 AM 58.5°F14.7°C 45.1°F7.3°C 61% 15.9 mph W25.6 kmh W 21.9 mph35.2 kmh 30.01 in1016.3 mb 0.00 in0.0 mm 0.00 in0.0 mm 0.00 in0.0 mm
12:05 AM 58.5°F14.7°C 45.1°F7.3°C 61% 15.3 mph WSW24.6 kmh WSW 20.4 mph32.8 kmh 30.01 in1016.3 mb 0.00 in0.0 mm 0.00 in0.0 mm 0.00 in0.0 mm
12:10 AM 58.4°F14.7°C 45.0°F7.2°C 61% 13.6 mph WSW21.9 kmh WSW 20.1 mph32.3 kmh 30.01 in1016.3 mb 0.00 in0.0 mm 0.00 in0.0 mm 0.00 in0.0 mm
12:15 AM 58.3°F14.6°C 44.9°F7.2°C 61% 13.3 mph WSW21.4 kmh WSW 15.9 mph25.6 kmh 30.00 in1015.9 mb 0.00 in0.0 mm 0.00 in0.0 mm 0.00 in0.0 mm
12:20 AM 58.3°F14.6°C 44.9°F7.2°C 61% 12.3 mph WSW19.8 kmh WSW 19.0 mph30.6 kmh 30.00 in1015.9 mb 0.00 in0.0 mm 0.00 in0.0 mm 0.00 in0.0 mm
12:25 AM 58.2°F14.6°C 45.0°F7.2°C 61% 11.3 mph WSW18.2 kmh WSW 12.3 mph19.8 kmh 30.00 in1015.9 mb 0.00 in0.0 mm 0.00 in0.0 mm 0.00 in0.0 mm
12:30 AM 58.0°F14.4°C 45.1°F7.3°C 62% 8.7 mph WSW14.0 kmh WSW 17.4 mph28.0 kmh 30.00 in1015.9 mb 0.00 in0.0 mm 0.00 in0.0 mm 0.00 in0.0 mm
12:35 AM 57.9°F14.4°C 45.0°F7.2°C 62% 9.0 mph WSW14.5 kmh WSW 14.8 mph23.8 kmh 30.00 in1015.9 mb 0.00 in0.0 mm 0.00 in0.0 mm 0.00 in0.0 mm
12:40 AM 57.9°F14.4°C 45.0°F7.2°C 62% 9.6 mph WSW15.4 kmh WSW 11.2 mph18.0 kmh 30.00 in1015.9 mb 0.00 in0.0 mm 0.00 in0.0 mm 0.00 in0.0 mm
12:45 AM 57.9°F14.4°C 45.0°F7.2°C 62% 9.1 mph WSW14.6 kmh WSW 11.2 mph18.0 kmh 30.00 in1015.9 mb 0.00 in0.0 mm 0.00 in0.0 mm 0.00 in0.0 mm
12:50 AM 57.8°F14.3°C 44.8°F7.1°C 62% 7.6 mph WSW12.2 kmh WSW 11.2 mph18.0 kmh 30.00 in1015.9 mb 0.00 in0.0 mm 0.00 in0.0 mm 0.00 in0.0 mm
12:55 AM 57.7°F14.3°C 44.8°F7.1°C 62% 7.9 mph WSW12.7 kmh WSW 13.4 mph21.6 kmh 29.99 in1015.6 mb 0.00 in0.0 mm 0.00 in0.0 mm 0.00 in0.0 mm
01:00 AM 57.8°F14.3°C 44.9°F7.2°C 62% 8.5 mph WSW13.7 kmh WSW 12.5 mph20.1 kmh 29.99 in1015.6 mb 0.00 in0.0 mm 0.00 in0.0 mm 0.00 in0.0 mm
01:05 AM 57.9°F14.4°C 44.6°F7.0°C 61% 8.3 mph WSW13.4 kmh WSW 13.0 mph20.9 kmh 29.99 in1015.6 mb 0.00 in0.0 mm 0.00 in0.0 mm 0.00 in0.0 mm
01:10 AM 58.1°F14.5°C 44.7°F7.1°C 61% 7.6 mph WSW12.2 kmh WSW 11.4 mph18.3 kmh 29.99 in1015.6 mb 0.00 in0.0 mm 0.00 in0.0 mm 0.00 in0.0 mm
01:15 AM 58.3°F14.6°C 44.8°F7.1°C 61% 7.6 mph WSW12.2 kmh WSW 12.3 mph19.8 kmh 29.99 in1015.6 mb 0.00 in0.0 mm 0.00 in0.0 mm 0.00 in0.0 mm
01:20 AM 58.3°F14.6°C 44.5°F6.9°C 60% 7.6 mph WSW12.2 kmh WSW 13.6 mph21.9 kmh 29.99 in1015.6 mb 0.00 in0.0 mm 0.00 in0.0 mm 0.00 in0.0 mm
01:25 AM 58.5°F14.7°C 44.6°F7.0°C 60% 7.9 mph WSW12.7 kmh WSW 14.1 mph22.7 kmh 29.98 in1015.2 mb 0.00 in0.0 mm 0.00 in0.0 mm 0.00 in0.0 mm
01:30 AM 58.5°F14.7°C 44.6°F7.0°C 60% 8.5 mph WSW13.7 kmh WSW 11.9 mph19.2 kmh 29.98 in1015.2 mb 0.00 in0.0 mm 0.00 in0.0 mm 0.00 in0.0 mm
01:35 AM 58.5°F14.7°C 44.6°F7.0°C 60% 8.5 mph WSW13.7 kmh WSW 12.5 mph20.1 kmh 29.98 in1015.2 mb 0.00 in0.0 mm 0.00 in0.0 mm 0.00 in0.0 mm
01:40 AM 58.5°F14.7°C 44.2°F6.8°C 59% 8.5 mph WSW13.7 kmh WSW 11.9 mph19.2 kmh 29.98 in1015.2 mb 0.00 in0.0 mm 0.00 in0.0 mm 0.00 in0.0 mm
01:45 AM 58.5°F14.7°C 44.2°F6.8°C 59% 8.5 mph WSW13.7 kmh WSW 11.4 mph18.3 kmh 29.98 in1015.2 mb 0.00 in0.0 mm 0.00 in0.0 mm 0.00 in0.0 mm
01:50 AM 58.4°F14.7°C 44.2°F6.8°C 59% 8.5 mph SW13.7 kmh SW 12.3 mph19.8 kmh 29.98 in1015.2 mb 0.00 in0.0 mm 0.00 in0.0 mm 0.00 in0.0 mm
01:55 AM 58.5°F14.7°C 44.2°F6.8°C 59% 8.6 mph SW13.8 kmh SW 13.0 mph20.9 kmh 29.98 in1015.2 mb 0.00 in0.0 mm 0.00 in0.0 mm 0.00 in0.0 mm
02:00 AM 58.5°F14.7°C 44.2°F6.8°C 59% 8.7 mph SW14.0 kmh SW 12.3 mph19.8 kmh 29.98 in1015.2 mb 0.00 in0.0 mm 0.00 in0.0 mm 0.00 in0.0 mm
02:05 AM 58.5°F14.7°C 44.2°F6.8°C 59% 8.8 mph SW14.2 kmh SW 13.6 mph21.9 kmh 29.98 in1015.2 mb 0.00 in0.0 mm 0.00 in0.0 mm 0.00 in0.0 mm
02:10 AM 58.5°F14.7°C 44.2°F6.8°C 59% 9.2 mph SW14.8 kmh SW 16.8 mph27.0 kmh 29.97 in1014.9 mb 0.00 in0.0 mm 0.00 in0.0 mm 0.00 in0.0 mm
02:15 AM 58.5°F14.7°C 44.2°F6.8°C 59% 9.0 mph SW14.5 kmh SW 15.2 mph24.5 kmh 29.97 in1014.9 mb 0.00 in0.0 mm 0.00 in0.0 mm 0.00 in0.0 mm
02:20 AM 58.6°F14.8°C 44.4°F6.9°C 59% 8.7 mph SW14.0 kmh SW 15.7 mph25.3 kmh 29.97 in1014.9 mb 0.00 in0.0 mm 0.00 in0.0 mm 0.00 in0.0 mm
02:25 AM 58.8°F14.9°C 44.4°F6.9°C 59% 8.4 mph WSW13.5 kmh WSW 15.9 mph25.6 kmh 29.97 in1014.9 mb 0.00 in0.0 mm 0.00 in0.0 mm 0.00 in0.0 mm
02:30 AM 58.9°F14.9°C 44.2°F6.8°C 58% 7.6 mph WSW12.2 kmh WSW 15.2 mph24.5 kmh 29.97 in1014.9 mb 0.00 in0.0 mm 0.00 in0.0 mm 0.00 in0.0 mm
02:35 AM 59.1°F15.1°C 44.4°F6.9°C 58% 7.9 mph WSW12.7 kmh WSW 14.5 mph23.3 kmh 29.97 in1014.9 mb 0.00 in0.0 mm 0.00 in0.0 mm 0.00 in0.0 mm
02:40 AM 59.2°F15.1°C 44.4°F6.9°C 58% 8.7 mph WSW14.0 kmh WSW 13.0 mph20.9 kmh 29.97 in1014.9 mb 0.00 in0.0 mm 0.00 in0.0 mm 0.00 in0.0 mm
02:45 AM 59.1°F15.1°C 44.3°F6.8°C 58% 8.7 mph WSW14.0 kmh WSW 15.2 mph24.5 kmh 29.96 in1014.6 mb 0.00 in0.0 mm 0.00 in0.0 mm 0.00 in0.0 mm
02:50 AM 59.0°F15.0°C 44.3°F6.8°C 58% 8.5 mph SW13.7 kmh SW 10.3 mph16.6 kmh 29.96 in1014.6 mb 0.00 in0.0 mm 0.00 in0.0 mm 0.00 in0.0 mm
02:55 AM 58.8°F14.9°C 44.5°F6.9°C 59% 8.1 mph SW13.0 kmh SW 8.7 mph14.0 kmh 29.96 in1014.6 mb 0.00 in0.0 mm 0.00 in0.0 mm 0.00 in0.0 mm
03:00 AM 58.5°F14.7°C 44.7°F7.1°C 60% 6.9 mph SW11.1 kmh SW 8.1 mph13.0 kmh 29.96 in1014.6 mb 0.00 in0.0 mm 0.00 in0.0 mm 0.00 in0.0 mm
03:05 AM 58.0°F14.4°C 44.6°F7.0°C 61% 6.2 mph SW10.0 kmh SW 6.9 mph11.1 kmh 29.96 in1014.6 mb 0.00 in0.0 mm 0.00 in0.0 mm 0.00 in0.0 mm
03:10 AM 57.6°F14.2°C 44.7°F7.1°C 62% 4.3 mph SW6.9 kmh SW 10.7 mph17.2 kmh 29.96 in1014.6 mb 0.00 in0.0 mm 0.00 in0.0 mm 0.00 in0.0 mm
03:15 AM 57.4°F14.1°C 44.5°F6.9°C 62% 4.8 mph SW7.7 kmh SW 11.9 mph19.2 kmh 29.95 in1014.2 mb 0.00 in0.0 mm 0.00 in0.0 mm 0.00 in0.0 mm
03:20 AM 57.5°F14.2°C 44.4°F6.9°C 62% 6.3 mph WSW10.1 kmh WSW 12.5 mph20.1 kmh 29.95 in1014.2 mb 0.00 in0.0 mm 0.00 in0.0 mm 0.00 in0.0 mm
03:25 AM 57.7°F14.3°C 44.3°F6.8°C 61% 6.8 mph WSW10.9 kmh WSW 15.2 mph24.5 kmh 29.95 in1014.2 mb 0.00 in0.0 mm 0.00 in0.0 mm 0.00 in0.0 mm
03:30 AM 57.9°F14.4°C 44.1°F6.7°C 60% 8.1 mph WSW13.0 kmh WSW 11.2 mph18.0 kmh 29.95 in1014.2 mb 0.00 in0.0 mm 0.00 in0.0 mm 0.00 in0.0 mm
03:35 AM 58.0°F14.4°C 44.2°F6.8°C 60% 7.9 mph WSW12.7 kmh WSW 11.2 mph18.0 kmh 29.95 in1014.2 mb 0.00 in0.0 mm 0.00 in0.0 mm 0.00 in0.0 mm
03:40 AM 58.1°F14.5°C 44.3°F6.8°C 60% 7.6 mph WSW12.2 kmh WSW 8.1 mph13.0 kmh 29.95 in1014.2 mb 0.00 in0.0 mm 0.00 in0.0 mm 0.00 in0.0 mm
03:45 AM 58.2°F14.6°C 44.3°F6.8°C 60% 7.2 mph WSW11.6 kmh WSW 10.1 mph16.3 kmh 29.95 in1014.2 mb 0.00 in0.0 mm 0.00 in0.0 mm 0.00 in0.0 mm
03:50 AM 58.0°F14.4°C 44.3°F6.8°C 60% 6.3 mph SW10.1 kmh SW 6.5 mph10.5 kmh 29.95 in1014.2 mb 0.00 in0.0 mm 0.00 in0.0 mm 0.00 in0.0 mm
03:55 AM 57.7°F14.3°C 44.5°F6.9°C 61% 6.0 mph SW9.7 kmh SW 6.5 mph10.5 kmh 29.95 in1014.2 mb 0.00 in0.0 mm 0.00 in0.0 mm 0.00 in0.0 mm
04:00 AM 57.2°F14.0°C 44.3°F6.8°C 62% 5.1 mph SW8.2 kmh SW 6.9 mph11.1 kmh 29.94 in1013.9 mb 0.00 in0.0 mm 0.00 in0.0 mm 0.00 in0.0 mm
04:05 AM 57.0°F13.9°C 44.1°F6.7°C 62% 5.1 mph SW8.2 kmh SW 7.4 mph11.9 kmh 29.94 in1013.9 mb 0.00 in0.0 mm 0.00 in0.0 mm 0.00 in0.0 mm
04:10 AM 57.0°F13.9°C 44.1°F6.7°C 62% 5.1 mph SW8.2 kmh SW 8.5 mph13.7 kmh 29.94 in1013.9 mb 0.00 in0.0 mm 0.00 in0.0 mm 0.00 in0.0 mm
04:15 AM 57.0°F13.9°C 44.1°F6.7°C 62% 5.5 mph SW8.9 kmh SW 8.5 mph13.7 kmh 29.93 in1013.5 mb 0.00 in0.0 mm 0.00 in0.0 mm 0.00 in0.0 mm
04:20 AM 57.0°F13.9°C 44.1°F6.7°C 62% 6.5 mph SW10.5 kmh SW 7.6 mph12.2 kmh 29.93 in1013.5 mb 0.00 in0.0 mm 0.00 in0.0 mm 0.00 in0.0 mm
04:25 AM 57.2°F14.0°C 44.0°F6.7°C 61% 6.2 mph SW10.0 kmh SW 8.7 mph14.0 kmh 29.93 in1013.5 mb 0.00 in0.0 mm 0.00 in0.0 mm 0.00 in0.0 mm
04:30 AM 57.4°F14.1°C 44.0°F6.7°C 61% 5.4 mph WSW8.7 kmh WSW 8.5 mph13.7 kmh 29.93 in1013.5 mb 0.00 in0.0 mm 0.00 in0.0 mm 0.00 in0.0 mm
04:35 AM 57.5°F14.2°C 43.9°F6.6°C 60% 5.7 mph WSW9.2 kmh WSW 13.0 mph20.9 kmh 29.93 in1013.5 mb 0.00 in0.0 mm 0.00 in0.0 mm 0.00 in0.0 mm
04:40 AM 57.7°F14.3°C 43.9°F6.6°C 60% 6.5 mph WSW10.5 kmh WSW 11.9 mph19.2 kmh 29.93 in1013.5 mb 0.00 in0.0 mm 0.00 in0.0 mm 0.00 in0.0 mm
04:45 AM 57.8°F14.3°C 43.9°F6.6°C 60% 6.9 mph WSW11.1 kmh WSW 12.3 mph19.8 kmh 29.93 in1013.5 mb 0.00 in0.0 mm 0.00 in0.0 mm 0.00 in0.0 mm
04:50 AM 57.9°F14.4°C 43.7°F6.5°C 59% 8.1 mph WSW13.0 kmh WSW 15.2 mph24.5 kmh 29.93 in1013.5 mb 0.00 in0.0 mm 0.00 in0.0 mm 0.00 in0.0 mm
04:55 AM 58.2°F14.6°C 43.9°F6.6°C 59% 8.2 mph WSW13.2 kmh WSW 12.3 mph19.8 kmh 29.93 in1013.5 mb 0.00 in0.0 mm 0.00 in0.0 mm 0.00 in0.0 mm
05:00 AM 58.3°F14.6°C 43.9°F6.6°C 59% 8.5 mph WSW13.7 kmh WSW 12.5 mph20.1 kmh 29.93 in1013.5 mb 0.00 in0.0 mm 0.00 in0.0 mm 0.00 in0.0 mm
05:05 AM 58.4°F14.7°C 43.6°F6.4°C 58% 8.4 mph WSW13.5 kmh WSW 14.5 mph23.3 kmh 29.93 in1013.5 mb 0.00 in0.0 mm 0.00 in0.0 mm 0.00 in0.0 mm
05:10 AM 58.5°F14.7°C 43.7°F6.5°C 58% 8.1 mph WSW13.0 kmh WSW 18.1 mph29.1 kmh 29.92 in1013.2 mb 0.00 in0.0 mm 0.00 in0.0 mm 0.00 in0.0 mm
05:15 AM 58.5°F14.7°C 43.7°F6.5°C 58% 8.8 mph WSW14.2 kmh WSW 20.1 mph32.3 kmh 29.92 in1013.2 mb 0.00 in0.0 mm 0.00 in0.0 mm 0.00 in0.0 mm
05:20 AM 58.6°F14.8°C 43.6°F6.4°C 57% 10.7 mph WSW17.2 kmh WSW 19.2 mph30.9 kmh 29.92 in1013.2 mb 0.00 in0.0 mm 0.00 in0.0 mm 0.00 in0.0 mm
05:25 AM 58.6°F14.8°C 43.5°F6.4°C 57% 11.2 mph WSW18.0 kmh WSW 17.0 mph27.4 kmh 29.91 in1012.9 mb 0.00 in0.0 mm 0.00 in0.0 mm 0.00 in0.0 mm
05:30 AM 58.6°F14.8°C 43.8°F6.6°C 58% 12.3 mph WSW19.8 kmh WSW 16.8 mph27.0 kmh 29.91 in1012.9 mb 0.00 in0.0 mm 0.00 in0.0 mm 0.00 in0.0 mm
05:35 AM 58.6°F14.8°C 43.9°F6.6°C 58% 11.7 mph WSW18.8 kmh WSW 15.9 mph25.6 kmh 29.91 in1012.9 mb 0.00 in0.0 mm 0.00 in0.0 mm 0.00 in0.0 mm
05:40 AM 58.6°F14.8°C 43.9°F6.6°C 58% 10.1 mph WSW16.3 kmh WSW 13.4 mph21.6 kmh 29.91 in1012.9 mb 0.00 in0.0 mm 0.00 in0.0 mm 0.00 in0.0 mm
05:45 AM 58.5°F14.7°C 44.1°F6.7°C 59% 9.3 mph WSW15.0 kmh WSW 11.9 mph19.2 kmh 29.91 in1012.9 mb 0.00 in0.0 mm 0.00 in0.0 mm 0.00 in0.0 mm
05:50 AM 58.3°F14.6°C 44.1°F6.7°C 59% 7.4 mph WSW11.9 kmh WSW 9.2 mph14.8 kmh 29.91 in1012.9 mb 0.00 in0.0 mm 0.00 in0.0 mm 0.00 in0.0 mm
05:55 AM 58.1°F14.5°C 44.1°F6.7°C 60% 7.1 mph WSW11.4 kmh WSW 8.5 mph13.7 kmh 29.91 in1012.9 mb 0.00 in0.0 mm 0.00 in0.0 mm 0.00 in0.0 mm
06:00 AM 57.9°F14.4°C 44.1°F6.7°C 60% 6.3 mph WSW10.1 kmh WSW 6.9 mph11.1 kmh 29.91 in1012.9 mb 0.00 in0.0 mm 0.00 in0.0 mm 0.00 in0.0 mm
06:05 AM 57.8°F14.3°C 44.0°F6.7°C 60% 5.8 mph WSW9.3 kmh WSW 6.5 mph10.5 kmh 29.91 in1012.9 mb 0.00 in0.0 mm 0.00 in0.0 mm 0.00 in0.0 mm
06:10 AM 57.7°F14.3°C 44.2°F6.8°C 61% 4.7 mph WSW7.6 kmh WSW 5.8 mph9.3 kmh 29.90 in1012.5 mb 0.00 in0.0 mm 0.00 in0.0 mm 0.00 in0.0 mm
06:15 AM 57.6°F14.2°C 44.2°F6.8°C 61% 4.6 mph WSW7.4 kmh WSW 7.4 mph11.9 kmh 29.90 in1012.5 mb 0.00 in0.0 mm 0.00 in0.0 mm 0.00 in0.0 mm
06:20 AM 57.4°F14.1°C 44.1°F6.7°C 61% 4.3 mph WSW6.9 kmh WSW 11.2 mph18.0 kmh 29.90 in1012.5 mb 0.00 in0.0 mm 0.00 in0.0 mm 0.00 in0.0 mm
06:25 AM 57.1°F13.9°C 44.2°F6.8°C 62% 5.5 mph SW8.9 kmh SW 19.0 mph30.6 kmh 29.91 in1012.9 mb 0.00 in0.0 mm 0.00 in0.0 mm 0.00 in0.0 mm
06:30 AM 57.3°F14.1°C 44.0°F6.7°C 61% 8.7 mph SW14.0 kmh SW 15.9 mph25.6 kmh 29.91 in1012.9 mb 0.00 in0.0 mm 0.00 in0.0 mm 0.00 in0.0 mm
06:35 AM 57.4°F14.1°C 43.6°F6.4°C 60% 9.1 mph SW14.6 kmh SW 10.3 mph16.6 kmh 29.91 in1012.9 mb 0.00 in0.0 mm 0.00 in0.0 mm 0.00 in0.0 mm
06:40 AM 57.2°F14.0°C 43.8°F6.6°C 61% 10.1 mph SW16.3 kmh SW 10.1 mph16.3 kmh 29.91 in1012.9 mb 0.00 in0.0 mm 0.00 in0.0 mm 0.00 in0.0 mm
06:45 AM 57.0°F13.9°C 43.7°F6.5°C 61% 8.9 mph SW14.3 kmh SW 10.1 mph16.3 kmh 29.91 in1012.9 mb 0.00 in0.0 mm 0.00 in0.0 mm 0.00 in0.0 mm
06:50 AM 56.9°F13.8°C 43.6°F6.4°C 61% 5.8 mph WSW9.3 kmh WSW 6.3 mph10.1 kmh 29.91 in1012.9 mb 0.00 in0.0 mm 0.00 in0.0 mm 0.00 in0.0 mm
06:55 AM 56.8°F13.8°C 43.7°F6.5°C 61% 5.6 mph WSW9.0 kmh WSW 7.4 mph11.9 kmh 29.90 in1012.5 mb 0.00 in0.0 mm 0.00 in0.0 mm 0.00 in0.0 mm
07:00 AM 56.7°F13.7°C 43.8°F6.6°C 62% 5.1 mph WSW8.2 kmh WSW 5.8 mph9.3 kmh 29.90 in1012.5 mb 0.00 in0.0 mm 0.00 in0.0 mm 0.00 in0.0 mm
07:05 AM 56.7°F13.7°C 43.8°F6.6°C 62% 5.1 mph WSW8.2 kmh WSW 6.5 mph10.5 kmh 29.90 in1012.5 mb 0.00 in0.0 mm 0.00 in0.0 mm 0.00 in0.0 mm
07:10 AM 56.7°F13.7°C 43.6°F6.4°C 62% 5.1 mph WSW8.2 kmh WSW 7.4 mph11.9 kmh 29.89 in1012.2 mb 0.00 in0.0 mm 0.00 in0.0 mm 0.00 in0.0 mm
07:15 AM 56.7°F13.7°C 43.4°F6.3°C 61% 5.1 mph WSW8.2 kmh WSW 6.5 mph10.5 kmh 29.89 in1012.2 mb 0.00 in0.0 mm 0.00 in0.0 mm 0.00 in0.0 mm
07:20 AM 56.8°F13.8°C 43.5°F6.4°C 61% 5.1 mph WSW8.2 kmh WSW 7.4 mph11.9 kmh 29.89 in1012.2 mb 0.00 in0.0 mm 0.00 in0.0 mm 0.00 in0.0 mm
07:25 AM 56.8°F13.8°C 43.5°F6.4°C 61% 5.1 mph WSW8.2 kmh WSW 7.4 mph11.9 kmh 29.89 in1012.2 mb 0.00 in0.0 mm 0.00 in0.0 mm 0.00 in0.0 mm
07:30 AM 57.0°F13.9°C 43.6°F6.4°C 61% 5.1 mph WSW8.2 kmh WSW 6.9 mph11.1 kmh 29.88 in1011.9 mb 0.00 in0.0 mm 0.00 in0.0 mm 0.00 in0.0 mm
07:35 AM 57.0°F13.9°C 43.3°F6.3°C 60% 5.3 mph WSW8.5 kmh WSW 10.1 mph16.3 kmh 29.88 in1011.9 mb 0.00 in0.0 mm 0.00 in0.0 mm 0.00 in0.0 mm
07:40 AM 57.1°F13.9°C 43.4°F6.3°C 60% 5.8 mph WSW9.3 kmh WSW 12.3 mph19.8 kmh 29.88 in1011.9 mb 0.00 in0.0 mm 0.00 in0.0 mm 0.00 in0.0 mm
07:45 AM 57.4°F14.1°C 43.6°F6.4°C 60% 6.3 mph WSW10.1 kmh WSW 8.7 mph14.0 kmh 29.88 in1011.9 mb 0.00 in0.0 mm 0.00 in0.0 mm 0.00 in0.0 mm
07:50 AM 57.4°F14.1°C 43.6°F6.4°C 60% 7.4 mph WSW11.9 kmh WSW 7.6 mph12.2 kmh 29.88 in1011.9 mb 0.00 in0.0 mm 0.00 in0.0 mm 0.00 in0.0 mm
07:55 AM 57.1°F13.9°C 43.7°F6.5°C 61% 6.9 mph SW11.1 kmh SW 7.6 mph12.2 kmh 29.88 in1011.9 mb 0.00 in0.0 mm 0.00 in0.0 mm 0.00 in0.0 mm
08:00 AM 56.8°F13.8°C 43.8°F6.6°C 62% 5.8 mph SW9.3 kmh SW 6.9 mph11.1 kmh 29.88 in1011.9 mb 0.00 in0.0 mm 0.00 in0.0 mm 0.00 in0.0 mm
08:05 AM 56.7°F13.7°C 43.8°F6.6°C 62% 5.6 mph SW9.0 kmh SW 7.4 mph11.9 kmh 29.88 in1011.9 mb 0.00 in0.0 mm 0.00 in0.0 mm 0.00 in0.0 mm
08:10 AM 56.7°F13.7°C 43.8°F6.6°C 62% 5.1 mph SW8.2 kmh SW 9.2 mph14.8 kmh 29.88 in1011.9 mb 0.00 in0.0 mm 0.00 in0.0 mm 0.00 in0.0 mm
08:15 AM 56.7°F13.7°C 44.0°F6.7°C 62% 5.5 mph SW8.9 kmh SW 10.1 mph16.3 kmh 29.88 in1011.9 mb 0.00 in0.0 mm 0.00 in0.0 mm 0.00 in0.0 mm
08:20 AM 56.7°F13.7°C 44.3°F6.8°C 63% 6.3 mph SW10.1 kmh SW 14.5 mph23.3 kmh 29.88 in1011.9 mb 0.00 in0.0 mm 0.00 in0.0 mm 0.00 in0.0 mm
08:25 AM 56.7°F13.7°C 44.9°F7.2°C 65% 7.1 mph SW11.4 kmh SW 18.1 mph29.1 kmh 29.89 in1012.2 mb 0.00 in0.0 mm 0.00 in0.0 mm 0.00 in0.0 mm
08:30 AM 56.5°F13.6°C 45.3°F7.4°C 66% 9.2 mph SW14.8 kmh SW 9.6 mph15.4 kmh 29.89 in1012.2 mb 0.00 in0.0 mm 0.00 in0.0 mm 0.00 in0.0 mm
08:35 AM 56.4°F13.6°C 45.8°F7.7°C 68% 8.1 mph SW13.0 kmh SW 9.2 mph14.8 kmh 29.89 in1012.2 mb 0.00 in0.0 mm 0.00 in0.0 mm 0.00 in0.0 mm
08:40 AM 56.1°F13.4°C 45.7°F7.6°C 68% 5.4 mph WSW8.7 kmh WSW 9.2 mph14.8 kmh 29.89 in1012.2 mb 0.00 in0.0 mm 0.00 in0.0 mm 0.00 in0.0 mm
08:45 AM 56.0°F13.3°C 45.8°F7.7°C 69% 5.6 mph WSW9.0 kmh WSW 10.3 mph16.6 kmh 29.89 in1012.2 mb 0.00 in0.0 mm 0.00 in0.0 mm 0.00 in0.0 mm
08:50 AM 55.8°F13.2°C 46.0°F7.8°C 70% 6.3 mph SW10.1 kmh SW 8.7 mph14.0 kmh 29.89 in1012.2 mb 0.00 in0.0 mm 0.00 in0.0 mm 0.00 in0.0 mm
08:55 AM 55.7°F13.2°C 46.2°F7.9°C 70% 6.1 mph SW9.8 kmh SW 8.5 mph13.7 kmh 29.89 in1012.2 mb 0.01 in0.3 mm 0.12 in3.0 mm 0.01 in0.3 mm
09:00 AM 55.6°F13.1°C 46.5°F8.1°C 71% 5.8 mph SW9.3 kmh SW 8.7 mph14.0 kmh 29.88 in1011.9 mb 0.01 in0.3 mm 0.00 in0.0 mm 0.01 in0.3 mm
09:05 AM 55.3°F12.9°C 46.6°F8.1°C 73% 5.9 mph SW9.5 kmh SW 6.5 mph10.5 kmh 29.88 in1011.9 mb 0.02 in0.5 mm 0.12 in3.0 mm 0.02 in0.5 mm
09:10 AM 55.1°F12.8°C 46.9°F8.3°C 74% 6.3 mph SW10.1 kmh SW 8.7 mph14.0 kmh 29.88 in1011.9 mb 0.02 in0.5 mm 0.00 in0.0 mm 0.02 in0.5 mm
09:15 AM 55.0°F12.8°C 47.1°F8.4°C 75% 6.0 mph SW9.7 kmh SW 6.3 mph10.1 kmh 29.88 in1011.9 mb 0.02 in0.5 mm 0.00 in0.0 mm 0.02 in0.5 mm
09:20 AM 54.8°F12.7°C 47.2°F8.4°C 75% 5.1 mph SW8.2 kmh SW 8.1 mph13.0 kmh 29.88 in1011.9 mb 0.03 in0.8 mm 0.12 in3.0 mm 0.03 in0.8 mm
09:25 AM 54.4°F12.4°C 47.2°F8.4°C 77% 5.2 mph SW8.4 kmh SW 7.6 mph12.2 kmh 29.87 in1011.5 mb 0.03 in0.8 mm 0.00 in0.0 mm 0.03 in0.8 mm
09:30 AM 54.1°F12.3°C 47.3°F8.5°C 78% 5.4 mph SSW8.7 kmh SSW 8.5 mph13.7 kmh 29.87 in1011.5 mb 0.03 in0.8 mm 0.00 in0.0 mm 0.03 in0.8 mm
09:35 AM 53.9°F12.2°C 47.3°F8.5°C 78% 5.7 mph SW9.2 kmh SW 10.1 mph16.3 kmh 29.87 in1011.5 mb 0.03 in0.8 mm 0.00 in0.0 mm 0.03 in0.8 mm
09:40 AM 53.8°F12.1°C 47.4°F8.6°C 79% 6.5 mph SW10.5 kmh SW 10.7 mph17.2 kmh 29.87 in1011.5 mb 0.03 in0.8 mm 0.00 in0.0 mm 0.03 in0.8 mm
09:45 AM 53.7°F12.1°C 47.3°F8.5°C 79% 6.8 mph SW10.9 kmh SW 11.4 mph18.3 kmh 29.87 in1011.5 mb 0.03 in0.8 mm 0.00 in0.0 mm 0.03 in0.8 mm
09:50 AM 53.6°F12.0°C 47.6°F8.7°C 80% 7.6 mph SW12.2 kmh SW 9.2 mph14.8 kmh 29.87 in1011.5 mb 0.03 in0.8 mm 0.00 in0.0 mm 0.03 in0.8 mm
09:55 AM 53.6°F12.0°C 47.6°F8.7°C 80% 6.9 mph SW11.1 kmh SW 7.6 mph12.2 kmh 29.86 in1011.2 mb 0.02 in0.5 mm 0.00 in0.0 mm 0.03 in0.8 mm
10:00 AM 53.4°F11.9°C 47.4°F8.6°C 80% 5.1 mph SW8.2 kmh SW 5.8 mph9.3 kmh 29.86 in1011.2 mb 0.02 in0.5 mm 0.00 in0.0 mm 0.03 in0.8 mm
10:05 AM 53.4°F11.9°C 47.7°F8.7°C 81% 4.7 mph SW7.6 kmh SW 5.1 mph8.2 kmh 29.86 in1011.2 mb 0.01 in0.3 mm 0.00 in0.0 mm 0.03 in0.8 mm
10:10 AM 53.4°F11.9°C 47.7°F8.7°C 81% 3.6 mph WSW5.8 kmh WSW 6.9 mph11.1 kmh 29.86 in1011.2 mb 0.01 in0.3 mm 0.00 in0.0 mm 0.03 in0.8 mm
10:15 AM 53.4°F11.9°C 47.7°F8.7°C 81% 3.8 mph SW6.1 kmh SW 6.9 mph11.1 kmh 29.86 in1011.2 mb 0.01 in0.3 mm 0.00 in0.0 mm 0.03 in0.8 mm
10:20 AM 53.3°F11.8°C 47.7°F8.7°C 81% 4.3 mph SSW6.9 kmh SSW 6.5 mph10.5 kmh 29.86 in1011.2 mb 0.00 in0.0 mm 0.00 in0.0 mm 0.03 in0.8 mm
10:25 AM 53.1°F11.7°C 47.8°F8.8°C 82% 4.5 mph SSW7.2 kmh SSW 8.1 mph13.0 kmh 29.86 in1011.2 mb 0.00 in0.0 mm 0.00 in0.0 mm 0.03 in0.8 mm
10:30 AM 53.0°F11.7°C 47.7°F8.7°C 82% 5.1 mph S8.2 kmh S 10.7 mph17.2 kmh 29.86 in1011.2 mb 0.00 in0.0 mm 0.00 in0.0 mm 0.03 in0.8 mm
10:35 AM 53.0°F11.7°C 47.7°F8.7°C 82% 5.6 mph SSW9.0 kmh SSW 9.2 mph14.8 kmh 29.86 in1011.2 mb 0.00 in0.0 mm 0.00 in0.0 mm 0.03 in0.8 mm
10:40 AM 53.1°F11.7°C 47.7°F8.7°C 82% 6.9 mph SW11.1 kmh SW 8.7 mph14.0 kmh 29.85 in1010.8 mb 0.00 in0.0 mm 0.00 in0.0 mm 0.03 in0.8 mm
10:45 AM 53.1°F11.7°C 47.8°F8.8°C 82% 6.6 mph SW10.6 kmh SW 6.9 mph11.1 kmh 29.85 in1010.8 mb 0.00 in0.0 mm 0.00 in0.0 mm 0.03 in0.8 mm
10:50 AM 53.2°F11.8°C 47.9°F8.8°C 82% 5.8 mph SW9.3 kmh SW 5.8 mph9.3 kmh 29.85 in1010.8 mb 0.00 in0.0 mm 0.00 in0.0 mm 0.03 in0.8 mm
10:55 AM 53.4°F11.9°C 48.0°F8.9°C 82% 5.4 mph SW8.7 kmh SW 6.5 mph10.5 kmh 29.85 in1010.8 mb 0.00 in0.0 mm 0.00 in0.0 mm 0.03 in0.8 mm
11:00 AM 53.5°F11.9°C 48.1°F8.9°C 82% 4.3 mph SW6.9 kmh SW 5.1 mph8.2 kmh 29.86 in1011.2 mb 0.00 in0.0 mm 0.00 in0.0 mm 0.03 in0.8 mm
11:05 AM 53.7°F12.1°C 48.4°F9.1°C 82% 4.1 mph SW6.6 kmh SW 8.5 mph13.7 kmh 29.86 in1011.2 mb 0.00 in0.0 mm 0.00 in0.0 mm 0.03 in0.8 mm
11:10 AM 53.9°F12.2°C 48.5°F9.2°C 82% 3.6 mph SW5.8 kmh SW 7.6 mph12.2 kmh 29.85 in1010.8 mb 0.00 in0.0 mm 0.00 in0.0 mm 0.03 in0.8 mm
11:15 AM 54.0°F12.2°C 48.7°F9.3°C 82% 4.1 mph SW6.6 kmh SW 7.4 mph11.9 kmh 29.85 in1010.8 mb 0.00 in0.0 mm 0.00 in0.0 mm 0.03 in0.8 mm
11:20 AM 54.2°F12.3°C 48.8°F9.3°C 82% 5.4 mph WSW8.7 kmh WSW 7.6 mph12.2 kmh 29.85 in1010.8 mb 0.00 in0.0 mm 0.00 in0.0 mm 0.03 in0.8 mm
11:25 AM 54.4°F12.4°C 49.0°F9.4°C 82% 5.3 mph WSW8.5 kmh WSW 7.4 mph11.9 kmh 29.84 in1010.5 mb 0.00 in0.0 mm 0.00 in0.0 mm 0.03 in0.8 mm
11:30 AM 54.7°F12.6°C 48.9°F9.4°C 81% 5.1 mph WSW8.2 kmh WSW 5.8 mph9.3 kmh 29.83 in1010.2 mb 0.00 in0.0 mm 0.00 in0.0 mm 0.03 in0.8 mm
11:35 AM 54.8°F12.7°C 49.1°F9.5°C 81% 4.7 mph WSW7.6 kmh WSW 5.8 mph9.3 kmh 29.83 in1010.2 mb 0.00 in0.0 mm 0.00 in0.0 mm 0.03 in0.8 mm
11:40 AM 55.1°F12.8°C 49.1°F9.5°C 80% 3.6 mph WSW5.8 kmh WSW 3.6 mph5.8 kmh 29.82 in1009.8 mb 0.00 in0.0 mm 0.00 in0.0 mm 0.03 in0.8 mm
11:45 AM 55.4°F13.0°C 49.2°F9.6°C 80% 3.0 mph WSW4.8 kmh WSW 3.6 mph5.8 kmh 29.82 in1009.8 mb 0.00 in0.0 mm 0.00 in0.0 mm 0.03 in0.8 mm
11:50 AM 55.8°F13.2°C 49.4°F9.7°C 79% 1.3 mph W2.1 kmh W 3.1 mph5.0 kmh 29.82 in1009.8 mb 0.00 in0.0 mm 0.00 in0.0 mm 0.03 in0.8 mm
11:55 AM 56.1°F13.4°C 49.4°F9.7°C 78% 1.5 mph W2.4 kmh W 3.1 mph5.0 kmh 29.82 in1009.8 mb 0.00 in0.0 mm 0.00 in0.0 mm 0.03 in0.8 mm
12:00 PM 56.5°F13.6°C 49.4°F9.7°C 77% 1.8 mph WNW2.9 kmh WNW 7.4 mph11.9 kmh 29.81 in1009.5 mb 0.00 in0.0 mm 0.00 in0.0 mm 0.03 in0.8 mm
12:05 PM 56.9°F13.8°C 49.2°F9.6°C 76% 2.0 mph WSW3.2 kmh WSW 5.8 mph9.3 kmh 29.81 in1009.5 mb 0.00 in0.0 mm 0.00 in0.0 mm 0.03 in0.8 mm
12:10 PM 57.2°F14.0°C 49.2°F9.6°C 75% 2.5 mph SSW4.0 kmh SSW 5.8 mph9.3 kmh 29.80 in1009.1 mb 0.00 in0.0 mm 0.00 in0.0 mm 0.03 in0.8 mm
12:15 PM 57.4°F14.1°C 48.9°F9.4°C 73% 2.9 mph SW4.7 kmh SW 9.2 mph14.8 kmh 29.79 in1008.8 mb 0.00 in0.0 mm 0.00 in0.0 mm 0.03 in0.8 mm
12:20 PM 57.7°F14.3°C 48.8°F9.3°C 72% 4.0 mph SW6.4 kmh SW 10.1 mph16.3 kmh 29.79 in1008.8 mb 0.00 in0.0 mm 0.00 in0.0 mm 0.03 in0.8 mm
12:25 PM 58.0°F14.4°C 48.9°F9.4°C 72% 4.7 mph SW7.6 kmh SW 8.7 mph14.0 kmh 29.79 in1008.8 mb 0.00 in0.0 mm 0.00 in0.0 mm 0.03 in0.8 mm
12:30 PM 58.4°F14.7°C 48.9°F9.4°C 70% 6.5 mph SW10.5 kmh SW 6.5 mph10.5 kmh 29.79 in1008.8 mb 0.00 in0.0 mm 0.00 in0.0 mm 0.03 in0.8 mm
12:35 PM 58.7°F14.8°C 48.4°F9.1°C 69% 5.6 mph SW9.0 kmh SW 6.5 mph10.5 kmh 29.79 in1008.8 mb 0.00 in0.0 mm 0.00 in0.0 mm 0.03 in0.8 mm
12:40 PM 58.8°F14.9°C 47.8°F8.8°C 67% 3.1 mph WSW5.0 kmh WSW 7.4 mph11.9 kmh 29.77 in1008.1 mb 0.00 in0.0 mm 0.00 in0.0 mm 0.03 in0.8 mm
12:45 PM 58.7°F14.8°C 47.9°F8.8°C 67% 3.4 mph SW5.5 kmh SW 7.4 mph11.9 kmh 29.76 in1007.8 mb 0.00 in0.0 mm 0.00 in0.0 mm 0.03 in0.8 mm
12:50 PM 58.6°F14.8°C 48.1°F8.9°C 68% 4.0 mph S6.4 kmh S 8.1 mph13.0 kmh 29.76 in1007.8 mb 0.00 in0.0 mm 0.00 in0.0 mm 0.03 in0.8 mm
12:55 PM 58.4°F14.7°C 48.4°F9.1°C 69% 4.3 mph S6.9 kmh S 6.9 mph11.1 kmh 29.75 in1007.5 mb 0.00 in0.0 mm 0.00 in0.0 mm 0.03 in0.8 mm
01:00 PM 58.2°F14.6°C 49.0°F9.4°C 71% 5.1 mph S8.2 kmh S 5.4 mph8.7 kmh 29.75 in1007.5 mb 0.01 in0.3 mm 0.01 in0.3 mm 0.04 in1.0 mm
01:05 PM 58.0°F14.4°C 49.4°F9.7°C 73% 4.5 mph SSW7.2 kmh SSW 5.1 mph8.2 kmh 29.75 in1007.5 mb 0.01 in0.3 mm 0.00 in0.0 mm 0.04 in1.0 mm
01:10 PM 57.9°F14.4°C 49.3°F9.6°C 73% 2.9 mph SW4.7 kmh SW 5.1 mph8.2 kmh 29.75 in1007.5 mb 0.01 in0.3 mm 0.00 in0.0 mm 0.04 in1.0 mm
01:15 PM 57.8°F14.3°C 49.5°F9.7°C 74% 3.0 mph SW4.8 kmh SW 4.7 mph7.6 kmh 29.75 in1007.5 mb 0.01 in0.3 mm 0.00 in0.0 mm 0.04 in1.0 mm
01:20 PM 57.7°F14.3°C 49.8°F9.9°C 75% 3.1 mph SSW5.0 kmh SSW 6.9 mph11.1 kmh 29.75 in1007.5 mb 0.02 in0.5 mm 0.12 in3.0 mm 0.05 in1.3 mm
01:25 PM 57.6°F14.2°C 50.1°F10.1°C 76% 3.4 mph SW5.5 kmh SW 5.4 mph8.7 kmh 29.74 in1007.1 mb 0.02 in0.5 mm 0.00 in0.0 mm 0.05 in1.3 mm
01:30 PM 57.5°F14.2°C 50.0°F10.0°C 76% 4.3 mph SW6.9 kmh SW 4.3 mph6.9 kmh 29.74 in1007.1 mb 0.03 in0.8 mm 0.12 in3.0 mm 0.06 in1.5 mm
01:35 PM 57.1°F13.9°C 49.7°F9.8°C 76% 3.8 mph SW6.1 kmh SW 4.3 mph6.9 kmh 29.74 in1007.1 mb 0.03 in0.8 mm 0.00 in0.0 mm 0.06 in1.5 mm
01:40 PM 56.8°F13.8°C 49.7°F9.8°C 77% 2.5 mph SW4.0 kmh SW 7.4 mph11.9 kmh 29.73 in1006.8 mb 0.03 in0.8 mm 0.00 in0.0 mm 0.06 in1.5 mm
01:45 PM 56.3°F13.5°C 49.6°F9.8°C 78% 3.2 mph SSW5.1 kmh SSW 7.6 mph12.2 kmh 29.73 in1006.8 mb 0.03 in0.8 mm 0.00 in0.0 mm 0.06 in1.5 mm
01:50 PM 56.0°F13.3°C 49.8°F9.9°C 80% 5.1 mph S8.2 kmh S 8.7 mph14.0 kmh 29.73 in1006.8 mb 0.03 in0.8 mm 0.00 in0.0 mm 0.06 in1.5 mm
01:55 PM 55.9°F13.3°C 49.8°F9.9°C 80% 5.5 mph S8.9 kmh S 9.6 mph15.4 kmh 29.73 in1006.8 mb 0.03 in0.8 mm 0.00 in0.0 mm 0.06 in1.5 mm
02:00 PM 55.8°F13.2°C 49.8°F9.9°C 80% 6.5 mph SW10.5 kmh SW 10.1 mph16.3 kmh 29.73 in1006.8 mb 0.02 in0.5 mm 0.00 in0.0 mm 0.06 in1.5 mm
02:05 PM 55.7°F13.2°C 49.9°F9.9°C 81% 6.9 mph SW11.1 kmh SW 24.6 mph39.6 kmh 29.73 in1006.8 mb 0.04 in1.0 mm 0.24 in6.1 mm 0.08 in2.0 mm
02:10 PM 55.5°F13.1°C 49.9°F9.9°C 81% 8.1 mph SW13.0 kmh SW 35.6 mph57.3 kmh 29.76 in1007.8 mb 0.06 in1.5 mm 0.24 in6.1 mm 0.10 in2.5 mm
02:15 PM 55.2°F12.9°C 50.1°F10.1°C 83% 9.9 mph WSW15.9 kmh WSW 30.9 mph49.7 kmh 29.77 in1008.1 mb 0.07 in1.8 mm 0.12 in3.0 mm 0.11 in2.8 mm
02:20 PM 55.0°F12.8°C 50.2°F10.1°C 84% 14.5 mph WSW23.3 kmh WSW 24.6 mph39.6 kmh 29.77 in1008.1 mb 0.08 in2.0 mm 0.12 in3.0 mm 0.13 in3.3 mm
02:25 PM 54.8°F12.7°C 50.1°F10.1°C 84% 12.9 mph WSW20.8 kmh WSW 14.5 mph23.3 kmh 29.74 in1007.1 mb 0.09 in2.3 mm 0.12 in3.0 mm 0.14 in3.6 mm
02:30 PM 54.7°F12.6°C 50.2°F10.1°C 85% 8.7 mph WSW14.0 kmh WSW 8.7 mph14.0 kmh 29.74 in1007.1 mb 0.08 in2.0 mm 0.00 in0.0 mm 0.14 in3.6 mm
02:35 PM 54.5°F12.5°C 50.1°F10.1°C 85% 7.2 mph WSW11.6 kmh WSW 8.7 mph14.0 kmh 29.74 in1007.1 mb 0.08 in2.0 mm 0.00 in0.0 mm 0.14 in3.6 mm
02:40 PM 54.3°F12.4°C 49.9°F9.9°C 85% 3.1 mph WSW5.0 kmh WSW 3.1 mph5.0 kmh 29.71 in1006.1 mb 0.08 in2.0 mm 0.00 in0.0 mm 0.14 in3.6 mm
02:45 PM 54.2°F12.3°C 49.8°F9.9°C 85% 2.8 mph WSW4.5 kmh WSW 4.3 mph6.9 kmh 29.70 in1005.8 mb 0.08 in2.0 mm 0.00 in0.0 mm 0.14 in3.6 mm
02:50 PM 54.1°F12.3°C 50.0°F10.0°C 86% 1.8 mph SW2.9 kmh SW 9.6 mph15.4 kmh 29.70 in1005.8 mb 0.08 in2.0 mm 0.00 in0.0 mm 0.14 in3.6 mm
02:55 PM 54.1°F12.3°C 50.0°F10.0°C 86% 3.0 mph SW4.8 kmh SW 16.8 mph27.0 kmh 29.70 in1005.8 mb 0.08 in2.0 mm 0.00 in0.0 mm 0.14 in3.6 mm
03:00 PM 54.1°F12.3°C 50.0°F10.0°C 86% 6.3 mph WSW10.1 kmh WSW 26.8 mph43.1 kmh 29.70 in1005.8 mb 0.08 in2.0 mm 0.00 in0.0 mm 0.14 in3.6 mm
03:05 PM 54.0°F12.2°C 49.9°F9.9°C 86% 7.7 mph WSW12.4 kmh WSW 14.8 mph23.8 kmh 29.70 in1005.8 mb 0.06 in1.5 mm 0.00 in0.0 mm 0.14 in3.6 mm
03:10 PM 54.0°F12.2°C 49.9°F9.9°C 86% 11.4 mph SW18.3 kmh SW 11.9 mph19.2 kmh 29.69 in1005.4 mb 0.04 in1.0 mm 0.00 in0.0 mm 0.14 in3.6 mm
03:15 PM 54.0°F12.2°C 50.0°F10.0°C 86% 10.3 mph SW16.6 kmh SW 11.4 mph18.3 kmh 29.69 in1005.4 mb 0.03 in0.8 mm 0.00 in0.0 mm 0.14 in3.6 mm
03:20 PM 54.0°F12.2°C 50.2°F10.1°C 87% 7.4 mph WSW11.9 kmh WSW 11.4 mph18.3 kmh 29.69 in1005.4 mb 0.01 in0.3 mm 0.00 in0.0 mm 0.14 in3.6 mm
03:25 PM 54.1°F12.3°C 50.3°F10.2°C 87% 7.7 mph WSW12.4 kmh WSW 11.4 mph18.3 kmh 29.68 in1005.1 mb 0.00 in0.0 mm 0.00 in0.0 mm 0.14 in3.6 mm
03:30 PM 54.1°F12.3°C 50.4°F10.2°C 87% 8.5 mph WSW13.7 kmh WSW 11.4 mph18.3 kmh 29.67 in1004.7 mb 0.00 in0.0 mm 0.00 in0.0 mm 0.14 in3.6 mm
03:35 PM 54.4°F12.4°C 50.9°F10.5°C 88% 8.2 mph WSW13.2 kmh WSW 10.1 mph16.3 kmh 29.67 in1004.7 mb 0.00 in0.0 mm 0.00 in0.0 mm 0.14 in3.6 mm
03:40 PM 54.7°F12.6°C 51.2°F10.7°C 88% 7.4 mph WSW11.9 kmh WSW 8.7 mph14.0 kmh 29.67 in1004.7 mb 0.00 in0.0 mm 0.00 in0.0 mm 0.14 in3.6 mm
03:45 PM 55.0°F12.8°C 51.5°F10.8°C 88% 6.8 mph WSW10.9 kmh WSW 7.6 mph12.2 kmh 29.67 in1004.7 mb 0.00 in0.0 mm 0.00 in0.0 mm 0.14 in3.6 mm
03:50 PM 55.2°F12.9°C 51.6°F10.9°C 88% 5.4 mph WSW8.7 kmh WSW 8.7 mph14.0 kmh 29.67 in1004.7 mb 0.00 in0.0 mm 0.00 in0.0 mm 0.14 in3.6 mm
03:55 PM 55.5°F13.1°C 51.6°F10.9°C 87% 5.3 mph WSW8.5 kmh WSW 14.1 mph22.7 kmh 29.67 in1004.7 mb 0.00 in0.0 mm 0.00 in0.0 mm 0.14 in3.6 mm
04:00 PM 55.7°F13.2°C 50.5°F10.3°C 83% 5.1 mph WSW8.2 kmh WSW 21.3 mph34.3 kmh 29.67 in1004.7 mb 0.00 in0.0 mm 0.00 in0.0 mm 0.14 in3.6 mm
04:05 PM 56.2°F13.4°C 47.7°F8.7°C 73% 7.5 mph WSW12.1 kmh WSW 22.4 mph36.0 kmh 29.67 in1004.7 mb 0.00 in0.0 mm 0.00 in0.0 mm 0.14 in3.6 mm
04:10 PM 57.1°F13.9°C 45.9°F7.7°C 66% 13.4 mph WSW21.6 kmh WSW 30.9 mph49.7 kmh 29.67 in1004.7 mb 0.00 in0.0 mm 0.00 in0.0 mm 0.14 in3.6 mm
04:15 PM 57.9°F14.4°C 43.7°F6.5°C 59% 14.9 mph WSW24.0 kmh WSW 34.9 mph56.2 kmh 29.67 in1004.7 mb 0.00 in0.0 mm 0.00 in0.0 mm 0.14 in3.6 mm
04:20 PM 58.4°F14.7°C 42.6°F5.9°C 56% 18.6 mph WSW29.9 kmh WSW 32.4 mph52.1 kmh 29.67 in1004.7 mb 0.00 in0.0 mm 0.00 in0.0 mm 0.14 in3.6 mm
04:25 PM 58.6°F14.8°C 42.0°F5.6°C 54% 19.6 mph WSW31.5 kmh WSW 41.2 mph66.3 kmh 29.67 in1004.7 mb 0.00 in0.0 mm 0.00 in0.0 mm 0.14 in3.6 mm
04:30 PM 58.7°F14.8°C 40.8°F4.9°C 51% 22.4 mph WSW36.0 kmh WSW 36.9 mph59.4 kmh 29.67 in1004.7 mb 0.00 in0.0 mm 0.00 in0.0 mm 0.14 in3.6 mm
04:35 PM 58.7°F14.8°C 40.6°F4.8°C 51% 22.7 mph WSW36.5 kmh WSW 31.3 mph50.4 kmh 29.67 in1004.7 mb 0.00 in0.0 mm 0.00 in0.0 mm 0.14 in3.6 mm
04:40 PM 58.8°F14.9°C 40.5°F4.7°C 51% 23.7 mph WSW38.1 kmh WSW 37.4 mph60.2 kmh 29.68 in1005.1 mb 0.00 in0.0 mm 0.00 in0.0 mm 0.14 in3.6 mm
04:45 PM 58.8°F14.9°C 40.1°F4.5°C 50% 22.4 mph WSW36.0 kmh WSW 31.8 mph51.2 kmh 29.68 in1005.1 mb 0.00 in0.0 mm 0.00 in0.0 mm 0.14 in3.6 mm
04:50 PM 58.8°F14.9°C 39.8°F4.3°C 49% 19.0 mph SW30.6 kmh SW 37.4 mph60.2 kmh 29.68 in1005.1 mb 0.00 in0.0 mm 0.00 in0.0 mm 0.14 in3.6 mm
04:55 PM 58.8°F14.9°C 39.6°F4.2°C 49% 20.6 mph WSW33.2 kmh WSW 44.1 mph71.0 kmh 29.68 in1005.1 mb 0.00 in0.0 mm 0.00 in0.0 mm 0.14 in3.6 mm
05:00 PM 58.5°F14.7°C 40.5°F4.7°C 51% 24.8 mph WSW39.9 kmh WSW 42.9 mph69.0 kmh 29.68 in1005.1 mb 0.00 in0.0 mm 0.00 in0.0 mm 0.14 in3.6 mm
05:05 PM 56.9°F13.8°C 41.5°F5.3°C 56% 25.9 mph WSW41.7 kmh WSW 43.6 mph70.2 kmh 29.68 in1005.1 mb 0.00 in0.0 mm 0.00 in0.0 mm 0.14 in3.6 mm
05:10 PM 55.4°F13.0°C 41.5°F5.3°C 59% 28.6 mph WSW46.0 kmh WSW 32.0 mph51.5 kmh 29.70 in1005.8 mb 0.00 in0.0 mm 0.00 in0.0 mm 0.14 in3.6 mm
05:15 PM 54.7°F12.6°C 41.1°F5.1°C 60% 26.6 mph WSW42.8 kmh WSW 30.2 mph48.6 kmh 29.71 in1006.1 mb 0.00 in0.0 mm 0.00 in0.0 mm 0.14 in3.6 mm
05:20 PM 54.2°F12.3°C 40.8°F4.9°C 60% 21.5 mph WSW34.6 kmh WSW 34.9 mph56.2 kmh 29.71 in1006.1 mb 0.00 in0.0 mm 0.00 in0.0 mm 0.14 in3.6 mm
05:25 PM 54.1°F12.3°C 40.5°F4.7°C 60% 21.2 mph WSW34.1 kmh WSW 36.0 mph57.9 kmh 29.70 in1005.8 mb 0.00 in0.0 mm 0.00 in0.0 mm 0.14 in3.6 mm
05:30 PM 54.0°F12.2°C 40.1°F4.5°C 59% 20.4 mph WSW32.8 kmh WSW 32.0 mph51.5 kmh 29.70 in1005.8 mb 0.00 in0.0 mm 0.00 in0.0 mm 0.14 in3.6 mm
05:35 PM 54.0°F12.2°C 40.0°F4.4°C 59% 20.6 mph WSW33.2 kmh WSW 31.8 mph51.2 kmh 29.70 in1005.8 mb 0.00 in0.0 mm 0.00 in0.0 mm 0.14 in3.6 mm
05:40 PM 54.0°F12.2°C 39.9°F4.4°C 59% 21.3 mph WSW34.3 kmh WSW 29.8 mph48.0 kmh 29.69 in1005.4 mb 0.00 in0.0 mm 0.00 in0.0 mm 0.14 in3.6 mm
05:45 PM 54.0°F12.2°C 39.5°F4.2°C 58% 21.0 mph WSW33.8 kmh WSW 32.7 mph52.6 kmh 29.69 in1005.4 mb 0.00 in0.0 mm 0.00 in0.0 mm 0.14 in3.6 mm
05:50 PM 54.1°F12.3°C 39.1°F3.9°C 57% 20.4 mph WSW32.8 kmh WSW 34.4 mph55.4 kmh 29.69 in1005.4 mb 0.00 in0.0 mm 0.00 in0.0 mm 0.14 in3.6 mm
05:55 PM 54.2°F12.3°C 38.9°F3.8°C 56% 20.9 mph WSW33.6 kmh WSW 36.2 mph58.3 kmh 29.69 in1005.4 mb 0.00 in0.0 mm 0.00 in0.0 mm 0.14 in3.6 mm
06:00 PM 54.3°F12.4°C 39.0°F3.9°C 56% 22.4 mph WSW36.0 kmh WSW 36.2 mph58.3 kmh 29.69 in1005.4 mb 0.00 in0.0 mm 0.00 in0.0 mm 0.14 in3.6 mm
06:05 PM 54.4°F12.4°C 39.1°F3.9°C 56% 22.4 mph WSW36.0 kmh WSW 41.2 mph66.3 kmh 29.69 in1005.4 mb 0.00 in0.0 mm 0.00 in0.0 mm 0.14 in3.6 mm
06:10 PM 54.6°F12.6°C 39.2°F4.0°C 56% 22.4 mph WSW36.0 kmh WSW 36.7 mph59.1 kmh 29.71 in1006.1 mb 0.00 in0.0 mm 0.00 in0.0 mm 0.14 in3.6 mm
06:15 PM 54.6°F12.6°C 39.3°F4.1°C 56% 23.0 mph WSW37.0 kmh WSW 36.9 mph59.4 kmh 29.71 in1006.1 mb 0.00 in0.0 mm 0.00 in0.0 mm 0.14 in3.6 mm
06:20 PM 54.5°F12.5°C 39.6°F4.2°C 57% 24.6 mph WSW39.6 kmh WSW 45.9 mph73.9 kmh 29.71 in1006.1 mb 0.00 in0.0 mm 0.00 in0.0 mm 0.14 in3.6 mm
06:25 PM 54.4°F12.4°C 39.6°F4.2°C 57% 25.1 mph WSW40.4 kmh WSW 43.4 mph69.8 kmh 29.70 in1005.8 mb 0.00 in0.0 mm 0.00 in0.0 mm 0.14 in3.6 mm
06:30 PM 54.2°F12.3°C 39.5°F4.2°C 57% 26.4 mph WSW42.5 kmh WSW 49.7 mph80.0 kmh 29.70 in1005.8 mb 0.00 in0.0 mm 0.00 in0.0 mm 0.14 in3.6 mm
06:35 PM 54.0°F12.2°C 39.5°F4.2°C 58% 26.2 mph WSW42.2 kmh WSW 36.9 mph59.4 kmh 29.70 in1005.8 mb 0.00 in0.0 mm 0.00 in0.0 mm 0.14 in3.6 mm
06:40 PM 53.8°F12.1°C 39.4°F4.1°C 58% 25.7 mph WSW41.4 kmh WSW 46.1 mph74.2 kmh 29.71 in1006.1 mb 0.00 in0.0 mm 0.00 in0.0 mm 0.14 in3.6 mm
06:45 PM 53.7°F12.1°C 39.3°F4.1°C 58% 25.2 mph WSW40.6 kmh WSW 33.1 mph53.3 kmh 29.71 in1006.1 mb 0.00 in0.0 mm 0.00 in0.0 mm 0.14 in3.6 mm
06:50 PM 53.4°F11.9°C 39.2°F4.0°C 59% 23.7 mph WSW38.1 kmh WSW 35.1 mph56.5 kmh 29.71 in1006.1 mb 0.00 in0.0 mm 0.00 in0.0 mm 0.14 in3.6 mm
06:55 PM 53.1°F11.7°C 39.2°F4.0°C 59% 23.6 mph WSW38.0 kmh WSW 35.6 mph57.3 kmh 29.71 in1006.1 mb 0.00 in0.0 mm 0.00 in0.0 mm 0.14 in3.6 mm
07:00 PM 53.1°F11.7°C 39.3°F4.1°C 59% 23.5 mph WSW37.8 kmh WSW 36.0 mph57.9 kmh 29.70 in1005.8 mb 0.00 in0.0 mm 0.00 in0.0 mm 0.14 in3.6 mm
07:05 PM 53.1°F11.7°C 39.5°F4.2°C 60% 22.9 mph WSW36.9 kmh WSW 31.8 mph51.2 kmh 29.70 in1005.8 mb 0.00 in0.0 mm 0.00 in0.0 mm 0.14 in3.6 mm
07:10 PM 53.1°F11.7°C 39.5°F4.2°C 60% 21.3 mph WSW34.3 kmh WSW 29.5 mph47.5 kmh 29.72 in1006.4 mb 0.00 in0.0 mm 0.00 in0.0 mm 0.14 in3.6 mm
07:15 PM 53.1°F11.7°C 39.5°F4.2°C 60% 19.6 mph WSW31.5 kmh WSW 28.0 mph45.1 kmh 29.72 in1006.4 mb 0.00 in0.0 mm 0.00 in0.0 mm 0.14 in3.6 mm
07:20 PM 53.2°F11.8°C 39.6°F4.2°C 60% 15.2 mph WSW24.5 kmh WSW 46.5 mph74.8 kmh 29.72 in1006.4 mb 0.00 in0.0 mm 0.00 in0.0 mm 0.14 in3.6 mm
07:25 PM 53.6°F12.0°C 39.6°F4.2°C 59% 17.7 mph W28.5 kmh W 50.3 mph81.0 kmh 29.72 in1006.4 mb 0.00 in0.0 mm 0.00 in0.0 mm 0.14 in3.6 mm
07:30 PM 53.8°F12.1°C 39.6°F4.2°C 59% 24.2 mph W38.9 kmh W 29.5 mph47.5 kmh 29.72 in1006.4 mb 0.00 in0.0 mm 0.00 in0.0 mm 0.14 in3.6 mm
07:35 PM 53.8°F12.1°C 39.8°F4.3°C 59% 21.7 mph W34.9 kmh W 24.2 mph38.9 kmh 29.72 in1006.4 mb 0.00 in0.0 mm 0.00 in0.0 mm 0.14 in3.6 mm
07:40 PM 53.8°F12.1°C 39.5°F4.2°C 58% 15.2 mph WSW24.5 kmh WSW 24.8 mph39.9 kmh 29.72 in1006.4 mb 0.00 in0.0 mm 0.00 in0.0 mm 0.14 in3.6 mm
07:45 PM 53.9°F12.2°C 39.5°F4.2°C 58% 15.7 mph WSW25.3 kmh WSW 33.8 mph54.4 kmh 29.72 in1006.4 mb 0.00 in0.0 mm 0.00 in0.0 mm 0.14 in3.6 mm
07:50 PM 54.1°F12.3°C 39.7°F4.3°C 58% 17.0 mph WSW27.4 kmh WSW 36.2 mph58.3 kmh 29.72 in1006.4 mb 0.00 in0.0 mm 0.00 in0.0 mm 0.14 in3.6 mm
07:55 PM 54.1°F12.3°C 39.7°F4.3°C 58% 17.6 mph WSW28.3 kmh WSW 32.7 mph52.6 kmh 29.72 in1006.4 mb 0.00 in0.0 mm 0.00 in0.0 mm 0.14 in3.6 mm
08:00 PM 54.3°F12.4°C 39.8°F4.3°C 58% 19.0 mph WSW30.6 kmh WSW 38.5 mph62.0 kmh 29.72 in1006.4 mb 0.00 in0.0 mm 0.00 in0.0 mm 0.14 in3.6 mm
08:05 PM 54.4°F12.4°C 40.0°F4.4°C 58% 19.1 mph WSW30.7 kmh WSW 30.2 mph48.6 kmh 29.72 in1006.4 mb 0.00 in0.0 mm 0.00 in0.0 mm 0.14 in3.6 mm
08:10 PM 54.3°F12.4°C 39.9°F4.4°C 58% 19.2 mph WSW30.9 kmh WSW 27.5 mph44.3 kmh 29.72 in1006.4 mb 0.00 in0.0 mm 0.00 in0.0 mm 0.14 in3.6 mm
08:15 PM 54.3°F12.4°C 39.9°F4.4°C 58% 19.2 mph WSW30.9 kmh WSW 37.8 mph60.8 kmh 29.72 in1006.4 mb 0.00 in0.0 mm 0.00 in0.0 mm 0.14 in3.6 mm
08:20 PM 54.4°F12.4°C 40.0°F4.4°C 58% 19.0 mph WSW30.6 kmh WSW 31.3 mph50.4 kmh 29.72 in1006.4 mb 0.00 in0.0 mm 0.00 in0.0 mm 0.14 in3.6 mm
08:25 PM 54.6°F12.6°C 40.1°F4.5°C 58% 19.5 mph WSW31.4 kmh WSW 33.1 mph53.3 kmh 29.72 in1006.4 mb 0.00 in0.0 mm 0.00 in0.0 mm 0.14 in3.6 mm
08:30 PM 54.6°F12.6°C 40.4°F4.7°C 59% 20.8 mph WSW33.5 kmh WSW 32.0 mph51.5 kmh 29.73 in1006.8 mb 0.00 in0.0 mm 0.00 in0.0 mm 0.14 in3.6 mm
08:35 PM 54.5°F12.5°C 40.5°F4.7°C 59% 20.8 mph WSW33.5 kmh WSW 40.9 mph65.8 kmh 29.73 in1006.8 mb 0.00 in0.0 mm 0.00 in0.0 mm 0.14 in3.6 mm
08:40 PM 54.3°F12.4°C 40.5°F4.7°C 59% 20.8 mph WSW33.5 kmh WSW 36.9 mph59.4 kmh 29.72 in1006.4 mb 0.00 in0.0 mm 0.00 in0.0 mm 0.14 in3.6 mm
08:45 PM 54.3°F12.4°C 40.5°F4.7°C 59% 21.6 mph WSW34.8 kmh WSW 36.0 mph57.9 kmh 29.72 in1006.4 mb 0.00 in0.0 mm 0.00 in0.0 mm 0.14 in3.6 mm
08:50 PM 54.1°F12.3°C 40.6°F4.8°C 60% 23.5 mph WSW37.8 kmh WSW 39.8 mph64.1 kmh 29.72 in1006.4 mb 0.00 in0.0 mm 0.00 in0.0 mm 0.14 in3.6 mm
08:55 PM 54.1°F12.3°C 40.7°F4.8°C 60% 23.6 mph WSW38.0 kmh WSW 34.4 mph55.4 kmh 29.72 in1006.4 mb 0.00 in0.0 mm 0.00 in0.0 mm 0.14 in3.6 mm
09:00 PM 54.0°F12.2°C 40.6°F4.8°C 61% 23.7 mph WSW38.1 kmh WSW 41.8 mph67.3 kmh 29.72 in1006.4 mb 0.00 in0.0 mm 0.00 in0.0 mm 0.14 in3.6 mm
09:05 PM 54.0°F12.2°C 40.8°F4.9°C 61% 23.5 mph WSW37.8 kmh WSW 38.5 mph62.0 kmh 29.72 in1006.4 mb 0.00 in0.0 mm 0.00 in0.0 mm 0.14 in3.6 mm
09:10 PM 54.0°F12.2°C 40.9°F4.9°C 61% 23.0 mph WSW37.0 kmh WSW 31.3 mph50.4 kmh 29.72 in1006.4 mb 0.00 in0.0 mm 0.00 in0.0 mm 0.14 in3.6 mm
09:15 PM 53.9°F12.2°C 41.4°F5.2°C 63% 22.5 mph WSW36.2 kmh WSW 36.2 mph58.3 kmh 29.72 in1006.4 mb 0.00 in0.0 mm 0.00 in0.0 mm 0.14 in3.6 mm
09:20 PM 53.6°F12.0°C 42.0°F5.6°C 65% 21.3 mph WSW34.3 kmh WSW 42.9 mph69.0 kmh 29.72 in1006.4 mb 0.00 in0.0 mm 0.00 in0.0 mm 0.14 in3.6 mm
09:25 PM 53.2°F11.8°C 42.2°F5.7°C 66% 21.9 mph WSW35.2 kmh WSW 38.7 mph62.3 kmh 29.72 in1006.4 mb 0.00 in0.0 mm 0.00 in0.0 mm 0.14 in3.6 mm
09:30 PM 53.1°F11.7°C 42.1°F5.6°C 66% 23.7 mph WSW38.1 kmh WSW 40.5 mph65.2 kmh 29.73 in1006.8 mb 0.00 in0.0 mm 0.00 in0.0 mm 0.14 in3.6 mm
09:35 PM 53.0°F11.7°C 42.3°F5.7°C 67% 23.3 mph WSW37.5 kmh WSW 36.0 mph57.9 kmh 29.73 in1006.8 mb 0.01 in0.3 mm 0.12 in3.0 mm 0.15 in3.8 mm
09:40 PM 52.8°F11.6°C 42.4°F5.8°C 68% 22.4 mph WSW36.0 kmh WSW 34.2 mph55.0 kmh 29.72 in1006.4 mb 0.01 in0.3 mm 0.00 in0.0 mm 0.15 in3.8 mm
09:45 PM 52.4°F11.3°C 42.9°F6.1°C 70% 22.1 mph WSW35.6 kmh WSW 39.8 mph64.1 kmh 29.72 in1006.4 mb 0.02 in0.5 mm 0.12 in3.0 mm 0.16 in4.1 mm
09:50 PM 52.0°F11.1°C 43.0°F6.1°C 72% 21.3 mph WSW34.3 kmh WSW 48.5 mph78.1 kmh 29.72 in1006.4 mb 0.02 in0.5 mm 0.00 in0.0 mm 0.16 in4.1 mm
09:55 PM 51.5°F10.8°C 43.0°F6.1°C 73% 22.9 mph WSW36.9 kmh WSW 48.5 mph78.1 kmh 29.72 in1006.4 mb 0.03 in0.8 mm 0.12 in3.0 mm 0.17 in4.3 mm
10:00 PM 51.2°F10.7°C 43.3°F6.3°C 74% 27.3 mph WSW43.9 kmh WSW 41.8 mph67.3 kmh 29.72 in1006.4 mb 0.04 in1.0 mm 0.01 in0.3 mm 0.18 in4.6 mm
10:05 PM 50.9°F10.5°C 43.3°F6.3°C 75% 27.0 mph WSW43.5 kmh WSW 38.5 mph62.0 kmh 29.72 in1006.4 mb 0.05 in1.3 mm 0.12 in3.0 mm 0.19 in4.8 mm
10:10 PM 50.7°F10.4°C 43.3°F6.3°C 76% 26.4 mph W42.5 kmh W 39.1 mph62.9 kmh 29.73 in1006.8 mb 0.06 in1.5 mm 0.12 in3.0 mm 0.20 in5.1 mm
10:15 PM 50.5°F10.3°C 43.5°F6.4°C 77% 26.5 mph W42.6 kmh W 47.0 mph75.6 kmh 29.73 in1006.8 mb 0.08 in2.0 mm 0.24 in6.1 mm 0.22 in5.6 mm
10:20 PM 50.2°F10.1°C 43.4°F6.3°C 77% 26.8 mph WSW43.1 kmh WSW 49.0 mph78.9 kmh 29.73 in1006.8 mb 0.08 in2.0 mm 0.00 in0.0 mm 0.22 in5.6 mm
10:25 PM 50.0°F10.0°C 43.4°F6.3°C 78% 27.5 mph WSW44.3 kmh WSW 49.4 mph79.5 kmh 29.72 in1006.4 mb 0.09 in2.3 mm 0.12 in3.0 mm 0.23 in5.8 mm
10:30 PM 49.8°F9.9°C 43.5°F6.4°C 79% 29.1 mph WSW46.8 kmh WSW 45.2 mph72.7 kmh 29.72 in1006.4 mb 0.09 in2.3 mm 0.00 in0.0 mm 0.23 in5.8 mm
10:35 PM 50.0°F10.0°C 43.4°F6.3°C 78% 28.5 mph WSW45.9 kmh WSW 43.6 mph70.2 kmh 29.72 in1006.4 mb 0.08 in2.0 mm 0.00 in0.0 mm 0.23 in5.8 mm
10:40 PM 50.2°F10.1°C 43.4°F6.3°C 78% 26.8 mph W43.1 kmh W 37.4 mph60.2 kmh 29.73 in1006.8 mb 0.10 in2.5 mm 0.24 in6.1 mm 0.25 in6.4 mm
10:45 PM 50.4°F10.2°C 43.4°F6.3°C 77% 26.1 mph W42.0 kmh W 41.6 mph66.9 kmh 29.73 in1006.8 mb 0.09 in2.3 mm 0.00 in0.0 mm 0.25 in6.4 mm
10:50 PM 50.5°F10.3°C 43.3°F6.3°C 76% 24.2 mph W38.9 kmh W 36.0 mph57.9 kmh 29.73 in1006.8 mb 0.09 in2.3 mm 0.00 in0.0 mm 0.25 in6.4 mm
10:55 PM 50.7°F10.4°C 43.4°F6.3°C 76% 23.7 mph W38.1 kmh W 34.2 mph55.0 kmh 29.73 in1006.8 mb 0.08 in2.0 mm 0.00 in0.0 mm 0.25 in6.4 mm
11:00 PM 50.7°F10.4°C 43.4°F6.3°C 76% 22.6 mph W36.4 kmh W 30.9 mph49.7 kmh 29.74 in1007.1 mb 0.07 in1.8 mm 0.00 in0.0 mm 0.25 in6.4 mm
11:05 PM 50.9°F10.5°C 43.1°F6.2°C 75% 22.3 mph W35.9 kmh W 33.8 mph54.4 kmh 29.74 in1007.1 mb 0.06 in1.5 mm 0.00 in0.0 mm 0.25 in6.4 mm
11:10 PM 51.2°F10.7°C 43.1°F6.2°C 74% 21.5 mph W34.6 kmh W 38.7 mph62.3 kmh 29.73 in1006.8 mb 0.06 in1.5 mm 0.00 in0.0 mm 0.26 in6.6 mm
11:15 PM 51.4°F10.8°C 42.9°F6.1°C 73% 21.4 mph W34.4 kmh W 37.4 mph60.2 kmh 29.73 in1006.8 mb 0.04 in1.0 mm 0.00 in0.0 mm 0.26 in6.6 mm
11:20 PM 51.8°F11.0°C 42.8°F6.0°C 71% 21.3 mph W34.3 kmh W 47.0 mph75.6 kmh 29.73 in1006.8 mb 0.04 in1.0 mm 0.00 in0.0 mm 0.26 in6.6 mm
11:25 PM 52.0°F11.1°C 42.6°F5.9°C 70% 22.6 mph W36.4 kmh W 41.8 mph67.3 kmh 29.73 in1006.8 mb 0.03 in0.8 mm 0.00 in0.0 mm 0.26 in6.6 mm
11:30 PM 52.2°F11.2°C 42.7°F5.9°C 70% 26.2 mph W42.2 kmh W 38.0 mph61.2 kmh 29.73 in1006.8 mb 0.03 in0.8 mm 0.00 in0.0 mm 0.26 in6.6 mm
11:35 PM 52.3°F11.3°C 42.3°F5.7°C 69% 26.0 mph W41.8 kmh W 51.2 mph82.4 kmh 29.73 in1006.8 mb 0.03 in0.8 mm 0.00 in0.0 mm 0.26 in6.6 mm
11:40 PM 52.5°F11.4°C 42.2°F5.7°C 68% 25.7 mph W41.4 kmh W 39.8 mph64.1 kmh 29.73 in1006.8 mb 0.01 in0.3 mm 0.00 in0.0 mm 0.26 in6.6 mm
11:45 PM 52.6°F11.4°C 41.9°F5.5°C 67% 25.3 mph W40.7 kmh W 40.3 mph64.9 kmh 29.73 in1006.8 mb 0.02 in0.5 mm 0.12 in3.0 mm 0.27 in6.9 mm
11:50 PM 52.9°F11.6°C 41.6°F5.3°C 66% 24.2 mph W38.9 kmh W 41.6 mph66.9 kmh 29.73 in1006.8 mb 0.02 in0.5 mm 0.00 in0.0 mm 0.27 in6.9 mm
11:55 PM 53.0°F11.7°C 41.6°F5.3°C 65% 24.0 mph W38.6 kmh W 39.8 mph64.1 kmh 29.73 in1006.8 mb 0.02 in0.5 mm 0.00 in0.0 mm 0.27 in6.9 mm